sensor_id;sensor_type;location;lat;lon;timestamp;P1;durP1;ratioP1;P2;durP2;ratioP2
4601;SDS011;2313;48.552;9.370;2023-10-09T00:00:14;21.10;;;6.13;;
4601;SDS011;2313;48.552;9.370;2023-10-09T00:03:00;30.60;;;6.10;;
4601;SDS011;2313;48.552;9.370;2023-10-09T00:05:29;29.47;;;6.30;;
4601;SDS011;2313;48.552;9.370;2023-10-09T00:08:10;28.13;;;6.57;;
4601;SDS011;2313;48.552;9.370;2023-10-09T00:10:42;21.43;;;5.37;;
4601;SDS011;2313;48.552;9.370;2023-10-09T00:13:14;17.00;;;5.37;;
4601;SDS011;2313;48.552;9.370;2023-10-09T00:15:40;26.70;;;5.30;;
4601;SDS011;2313;48.552;9.370;2023-10-09T00:18:07;25.13;;;5.47;;
4601;SDS011;2313;48.552;9.370;2023-10-09T00:20:37;31.60;;;7.20;;
4601;SDS011;2313;48.552;9.370;2023-10-09T00:23:08;46.60;;;6.70;;
4601;SDS011;2313;48.552;9.370;2023-10-09T00:25:47;31.67;;;6.53;;
4601;SDS011;2313;48.552;9.370;2023-10-09T00:28:30;31.83;;;5.83;;
4601;SDS011;2313;48.552;9.370;2023-10-09T00:30:55;27.47;;;6.37;;
4601;SDS011;2313;48.552;9.370;2023-10-09T00:33:21;32.33;;;6.83;;
4601;SDS011;2313;48.552;9.370;2023-10-09T00:35:47;23.77;;;5.50;;
4601;SDS011;2313;48.552;9.370;2023-10-09T00:38:19;27.67;;;5.80;;
4601;SDS011;2313;48.552;9.370;2023-10-09T00:40:45;20.60;;;5.83;;
4601;SDS011;2313;48.552;9.370;2023-10-09T00:43:15;34.13;;;6.83;;
4601;SDS011;2313;48.552;9.370;2023-10-09T00:45:44;34.00;;;5.77;;
4601;SDS011;2313;48.552;9.370;2023-10-09T00:48:11;35.17;;;5.57;;
4601;SDS011;2313;48.552;9.370;2023-10-09T00:50:48;19.43;;;5.73;;
4601;SDS011;2313;48.552;9.370;2023-10-09T00:53:18;25.83;;;5.40;;
4601;SDS011;2313;48.552;9.370;2023-10-09T00:55:55;31.43;;;6.10;;
4601;SDS011;2313;48.552;9.370;2023-10-09T00:58:22;33.50;;;8.20;;
4601;SDS011;2313;48.552;9.370;2023-10-09T01:00:56;29.60;;;5.40;;
4601;SDS011;2313;48.552;9.370;2023-10-09T01:03:24;40.50;;;7.50;;
4601;SDS011;2313;48.552;9.370;2023-10-09T01:05:54;21.13;;;5.87;;
4601;SDS011;2313;48.552;9.370;2023-10-09T01:08:34;29.07;;;5.30;;
4601;SDS011;2313;48.552;9.370;2023-10-09T01:11:16;22.37;;;5.57;;
4601;SDS011;2313;48.552;9.370;2023-10-09T01:13:57;30.07;;;5.37;;
4601;SDS011;2313;48.552;9.370;2023-10-09T01:16:48;24.47;;;5.67;;
4601;SDS011;2313;48.552;9.370;2023-10-09T01:19:18;43.63;;;7.73;;
4601;SDS011;2313;48.552;9.370;2023-10-09T01:21:50;30.83;;;7.47;;
4601;SDS011;2313;48.552;9.370;2023-10-09T01:24:16;31.50;;;5.90;;
4601;SDS011;2313;48.552;9.370;2023-10-09T01:26:44;24.00;;;5.60;;
4601;SDS011;2313;48.552;9.370;2023-10-09T01:29:18;35.03;;;5.93;;
4601;SDS011;2313;48.552;9.370;2023-10-09T01:31:51;20.73;;;5.57;;
4601;SDS011;2313;48.552;9.370;2023-10-09T01:37:05;30.63;;;6.60;;
4601;SDS011;2313;48.552;9.370;2023-10-09T01:39:36;24.47;;;6.50;;
4601;SDS011;2313;48.552;9.370;2023-10-09T01:42:06;25.80;;;5.43;;
4601;SDS011;2313;48.552;9.370;2023-10-09T01:44:32;22.20;;;5.20;;
4601;SDS011;2313;48.552;9.370;2023-10-09T01:47:08;29.23;;;6.47;;
4601;SDS011;2313;48.552;9.370;2023-10-09T01:49:38;28.30;;;6.40;;
4601;SDS011;2313;48.552;9.370;2023-10-09T01:52:09;24.83;;;5.47;;
4601;SDS011;2313;48.552;9.370;2023-10-09T01:54:40;27.37;;;6.37;;
4601;SDS011;2313;48.552;9.370;2023-10-09T01:57:07;29.97;;;7.23;;
4601;SDS011;2313;48.552;9.370;2023-10-09T01:59:38;40.57;;;7.90;;
4601;SDS011;2313;48.552;9.370;2023-10-09T02:02:15;41.20;;;6.83;;
4601;SDS011;2313;48.552;9.370;2023-10-09T02:04:51;29.13;;;6.50;;
4601;SDS011;2313;48.552;9.370;2023-10-09T02:07:18;20.03;;;5.73;;
4601;SDS011;2313;48.552;9.370;2023-10-09T02:09:55;25.83;;;5.30;;
4601;SDS011;2313;48.552;9.370;2023-10-09T02:12:21;29.27;;;5.50;;
4601;SDS011;2313;48.552;9.370;2023-10-09T02:14:49;40.63;;;7.40;;
4601;SDS011;2313;48.552;9.370;2023-10-09T02:17:18;34.00;;;6.37;;
4601;SDS011;2313;48.552;9.370;2023-10-09T02:19:45;32.13;;;6.33;;
4601;SDS011;2313;48.552;9.370;2023-10-09T02:22:15;35.87;;;5.97;;
4601;SDS011;2313;48.552;9.370;2023-10-09T02:24:42;29.70;;;6.13;;
4601;SDS011;2313;48.552;9.370;2023-10-09T02:27:14;24.27;;;5.90;;
4601;SDS011;2313;48.552;9.370;2023-10-09T02:30:02;33.97;;;7.00;;
4601;SDS011;2313;48.552;9.370;2023-10-09T02:32:36;22.63;;;6.37;;
4601;SDS011;2313;48.552;9.370;2023-10-09T02:35:04;36.70;;;6.87;;
4601;SDS011;2313;48.552;9.370;2023-10-09T02:37:43;49.43;;;6.97;;
4601;SDS011;2313;48.552;9.370;2023-10-09T02:40:10;35.17;;;7.23;;
4601;SDS011;2313;48.552;9.370;2023-10-09T02:42:40;24.73;;;5.13;;
4601;SDS011;2313;48.552;9.370;2023-10-09T02:45:08;34.03;;;6.50;;
4601;SDS011;2313;48.552;9.370;2023-10-09T02:47:35;24.23;;;6.63;;
4601;SDS011;2313;48.552;9.370;2023-10-09T02:50:05;27.30;;;6.67;;
4601;SDS011;2313;48.552;9.370;2023-10-09T02:52:37;27.40;;;6.50;;
4601;SDS011;2313;48.552;9.370;2023-10-09T02:55:05;21.37;;;5.10;;
4601;SDS011;2313;48.552;9.370;2023-10-09T02:57:38;20.73;;;5.13;;
4601;SDS011;2313;48.552;9.370;2023-10-09T03:00:06;35.33;;;6.67;;
4601;SDS011;2313;48.552;9.370;2023-10-09T03:02:44;25.13;;;5.80;;
4601;SDS011;2313;48.552;9.370;2023-10-09T03:05:14;25.90;;;6.00;;
4601;SDS011;2313;48.552;9.370;2023-10-09T03:07:40;29.13;;;7.30;;
4601;SDS011;2313;48.552;9.370;2023-10-09T03:10:07;25.60;;;6.87;;
4601;SDS011;2313;48.552;9.370;2023-10-09T03:12:36;44.77;;;7.13;;
4601;SDS011;2313;48.552;9.370;2023-10-09T03:15:02;36.23;;;8.17;;
4601;SDS011;2313;48.552;9.370;2023-10-09T03:17:31;30.00;;;7.30;;
4601;SDS011;2313;48.552;9.370;2023-10-09T03:20:01;34.80;;;6.57;;
4601;SDS011;2313;48.552;9.370;2023-10-09T03:22:38;33.47;;;5.80;;
4601;SDS011;2313;48.552;9.370;2023-10-09T03:25:04;25.77;;;6.67;;
4601;SDS011;2313;48.552;9.370;2023-10-09T03:27:37;33.60;;;6.87;;
4601;SDS011;2313;48.552;9.370;2023-10-09T03:30:15;25.73;;;8.20;;
4601;SDS011;2313;48.552;9.370;2023-10-09T03:32:51;32.03;;;7.40;;
4601;SDS011;2313;48.552;9.370;2023-10-09T03:35:21;23.13;;;6.60;;
4601;SDS011;2313;48.552;9.370;2023-10-09T03:37:55;24.73;;;7.00;;
4601;SDS011;2313;48.552;9.370;2023-10-09T03:40:25;24.20;;;6.00;;
4601;SDS011;2313;48.552;9.370;2023-10-09T03:42:52;25.50;;;7.23;;
4601;SDS011;2313;48.552;9.370;2023-10-09T03:45:18;38.83;;;7.50;;
4601;SDS011;2313;48.552;9.370;2023-10-09T03:47:52;24.77;;;5.37;;
4601;SDS011;2313;48.552;9.370;2023-10-09T03:50:33;38.27;;;8.20;;
4601;SDS011;2313;48.552;9.370;2023-10-09T03:53:05;26.93;;;7.23;;
4601;SDS011;2313;48.552;9.370;2023-10-09T03:55:36;29.50;;;5.87;;
4601;SDS011;2313;48.552;9.370;2023-10-09T03:58:05;40.63;;;7.10;;
4601;SDS011;2313;48.552;9.370;2023-10-09T04:00:32;24.07;;;4.83;;
4601;SDS011;2313;48.552;9.370;2023-10-09T04:03:06;37.30;;;6.67;;
4601;SDS011;2313;48.552;9.370;2023-10-09T04:05:31;25.70;;;5.83;;
4601;SDS011;2313;48.552;9.370;2023-10-09T04:07:57;17.00;;;4.40;;
4601;SDS011;2313;48.552;9.370;2023-10-09T04:10:26;28.63;;;4.27;;
4601;SDS011;2313;48.552;9.370;2023-10-09T04:12:57;18.93;;;5.03;;
4601;SDS011;2313;48.552;9.370;2023-10-09T04:15:25;27.93;;;5.10;;
4601;SDS011;2313;48.552;9.370;2023-10-09T04:17:55;20.57;;;4.30;;
4601;SDS011;2313;48.552;9.370;2023-10-09T04:20:21;15.60;;;3.90;;
4601;SDS011;2313;48.552;9.370;2023-10-09T04:22:47;20.80;;;3.73;;
4601;SDS011;2313;48.552;9.370;2023-10-09T04:25:16;18.73;;;4.13;;
4601;SDS011;2313;48.552;9.370;2023-10-09T04:27:51;23.70;;;4.77;;
4601;SDS011;2313;48.552;9.370;2023-10-09T04:30:18;25.70;;;4.20;;
4601;SDS011;2313;48.552;9.370;2023-10-09T04:32:44;14.23;;;4.23;;
4601;SDS011;2313;48.552;9.370;2023-10-09T04:35:11;28.87;;;4.37;;
4601;SDS011;2313;48.552;9.370;2023-10-09T04:37:50;18.40;;;4.17;;
4601;SDS011;2313;48.552;9.370;2023-10-09T04:40:31;12.57;;;3.40;;
4601;SDS011;2313;48.552;9.370;2023-10-09T04:43:06;23.73;;;4.20;;
4601;SDS011;2313;48.552;9.370;2023-10-09T04:45:37;14.03;;;3.43;;
4601;SDS011;2313;48.552;9.370;2023-10-09T04:48:09;22.57;;;3.93;;
4601;SDS011;2313;48.552;9.370;2023-10-09T04:50:35;17.63;;;3.30;;
4601;SDS011;2313;48.552;9.370;2023-10-09T04:53:10;17.13;;;4.33;;
4601;SDS011;2313;48.552;9.370;2023-10-09T04:55:57;10.40;;;3.60;;
4601;SDS011;2313;48.552;9.370;2023-10-09T04:58:29;20.40;;;4.23;;
4601;SDS011;2313;48.552;9.370;2023-10-09T05:00:58;20.83;;;4.53;;
4601;SDS011;2313;48.552;9.370;2023-10-09T05:03:23;14.50;;;3.80;;
4601;SDS011;2313;48.552;9.370;2023-10-09T05:06:08;21.77;;;4.37;;
4601;SDS011;2313;48.552;9.370;2023-10-09T05:08:49;17.80;;;3.60;;
4601;SDS011;2313;48.552;9.370;2023-10-09T05:11:21;19.23;;;4.53;;
4601;SDS011;2313;48.552;9.370;2023-10-09T05:14:01;23.70;;;4.70;;
4601;SDS011;2313;48.552;9.370;2023-10-09T05:16:39;23.30;;;4.93;;
4601;SDS011;2313;48.552;9.370;2023-10-09T05:19:21;25.17;;;3.93;;
4601;SDS011;2313;48.552;9.370;2023-10-09T05:22:06;17.23;;;3.93;;
4601;SDS011;2313;48.552;9.370;2023-10-09T05:24:35;26.13;;;4.50;;
4601;SDS011;2313;48.552;9.370;2023-10-09T05:27:12;16.37;;;3.50;;
4601;SDS011;2313;48.552;9.370;2023-10-09T05:29:58;22.23;;;3.97;;
4601;SDS011;2313;48.552;9.370;2023-10-09T05:32:37;20.47;;;3.80;;
4601;SDS011;2313;48.552;9.370;2023-10-09T05:35:13;18.90;;;3.90;;
4601;SDS011;2313;48.552;9.370;2023-10-09T05:37:45;22.27;;;3.60;;
4601;SDS011;2313;48.552;9.370;2023-10-09T05:40:12;18.13;;;3.10;;
4601;SDS011;2313;48.552;9.370;2023-10-09T05:42:41;18.40;;;3.53;;
4601;SDS011;2313;48.552;9.370;2023-10-09T05:45:25;19.50;;;3.50;;
4601;SDS011;2313;48.552;9.370;2023-10-09T05:48:29;18.43;;;4.00;;
4601;SDS011;2313;48.552;9.370;2023-10-09T05:51:03;18.60;;;3.63;;
4601;SDS011;2313;48.552;9.370;2023-10-09T05:53:35;15.27;;;4.00;;
4601;SDS011;2313;48.552;9.370;2023-10-09T05:56:10;22.93;;;4.63;;
4601;SDS011;2313;48.552;9.370;2023-10-09T05:58:54;19.37;;;3.47;;
4601;SDS011;2313;48.552;9.370;2023-10-09T06:01:38;23.13;;;5.00;;
4601;SDS011;2313;48.552;9.370;2023-10-09T06:04:22;11.20;;;3.43;;
4601;SDS011;2313;48.552;9.370;2023-10-09T06:06:59;16.50;;;3.03;;
4601;SDS011;2313;48.552;9.370;2023-10-09T06:09:36;8.47;;;3.27;;
4601;SDS011;2313;48.552;9.370;2023-10-09T06:12:21;13.97;;;3.40;;
4601;SDS011;2313;48.552;9.370;2023-10-09T06:15:14;18.50;;;3.67;;
4601;SDS011;2313;48.552;9.370;2023-10-09T06:17:55;16.47;;;4.63;;
4601;SDS011;2313;48.552;9.370;2023-10-09T06:20:41;32.73;;;3.77;;
4601;SDS011;2313;48.552;9.370;2023-10-09T06:23:25;18.67;;;3.60;;
4601;SDS011;2313;48.552;9.370;2023-10-09T06:26:11;19.83;;;4.27;;
4601;SDS011;2313;48.552;9.370;2023-10-09T06:28:48;19.73;;;4.20;;
4601;SDS011;2313;48.552;9.370;2023-10-09T06:31:34;16.13;;;3.50;;
4601;SDS011;2313;48.552;9.370;2023-10-09T06:34:20;14.83;;;3.73;;
4601;SDS011;2313;48.552;9.370;2023-10-09T06:36:49;20.30;;;3.50;;
4601;SDS011;2313;48.552;9.370;2023-10-09T06:39:18;16.13;;;3.53;;
4601;SDS011;2313;48.552;9.370;2023-10-09T06:42:02;22.20;;;3.67;;
4601;SDS011;2313;48.552;9.370;2023-10-09T06:44:41;21.03;;;3.63;;
4601;SDS011;2313;48.552;9.370;2023-10-09T06:47:19;16.90;;;3.73;;
4601;SDS011;2313;48.552;9.370;2023-10-09T06:49:49;24.87;;;4.27;;
4601;SDS011;2313;48.552;9.370;2023-10-09T06:52:34;22.07;;;4.97;;
4601;SDS011;2313;48.552;9.370;2023-10-09T06:55:18;19.70;;;3.70;;
4601;SDS011;2313;48.552;9.370;2023-10-09T06:57:44;21.60;;;3.57;;
4601;SDS011;2313;48.552;9.370;2023-10-09T07:00:14;15.70;;;3.87;;
4601;SDS011;2313;48.552;9.370;2023-10-09T07:03:00;20.07;;;3.93;;
4601;SDS011;2313;48.552;9.370;2023-10-09T07:05:36;22.97;;;4.13;;
4601;SDS011;2313;48.552;9.370;2023-10-09T07:08:22;25.57;;;3.60;;
4601;SDS011;2313;48.552;9.370;2023-10-09T07:10:56;19.53;;;3.70;;
4601;SDS011;2313;48.552;9.370;2023-10-09T07:13:43;28.27;;;4.83;;
4601;SDS011;2313;48.552;9.370;2023-10-09T07:16:19;18.90;;;4.00;;
4601;SDS011;2313;48.552;9.370;2023-10-09T07:18:48;29.30;;;4.07;;
4601;SDS011;2313;48.552;9.370;2023-10-09T07:21:14;23.60;;;4.70;;
4601;SDS011;2313;48.552;9.370;2023-10-09T07:23:43;18.10;;;4.30;;
4601;SDS011;2313;48.552;9.370;2023-10-09T07:26:14;21.27;;;3.70;;
4601;SDS011;2313;48.552;9.370;2023-10-09T07:28:43;22.57;;;3.67;;
4601;SDS011;2313;48.552;9.370;2023-10-09T07:31:16;15.67;;;3.13;;
4601;SDS011;2313;48.552;9.370;2023-10-09T07:33:53;13.63;;;3.33;;
4601;SDS011;2313;48.552;9.370;2023-10-09T07:36:31;22.10;;;3.40;;
4601;SDS011;2313;48.552;9.370;2023-10-09T07:39:00;17.60;;;3.80;;
4601;SDS011;2313;48.552;9.370;2023-10-09T07:41:30;11.77;;;3.50;;
4601;SDS011;2313;48.552;9.370;2023-10-09T07:43:56;19.57;;;3.30;;
4601;SDS011;2313;48.552;9.370;2023-10-09T07:46:22;12.53;;;3.80;;
4601;SDS011;2313;48.552;9.370;2023-10-09T07:49:07;20.67;;;3.90;;
4601;SDS011;2313;48.552;9.370;2023-10-09T07:51:37;26.43;;;3.97;;
4601;SDS011;2313;48.552;9.370;2023-10-09T07:54:08;30.37;;;3.90;;
4601;SDS011;2313;48.552;9.370;2023-10-09T07:56:38;17.07;;;4.73;;
4601;SDS011;2313;48.552;9.370;2023-10-09T07:59:10;24.67;;;3.90;;
4601;SDS011;2313;48.552;9.370;2023-10-09T08:01:49;28.63;;;4.60;;
4601;SDS011;2313;48.552;9.370;2023-10-09T08:04:20;25.47;;;5.10;;
4601;SDS011;2313;48.552;9.370;2023-10-09T08:07:13;15.60;;;3.50;;
4601;SDS011;2313;48.552;9.370;2023-10-09T08:09:54;27.17;;;3.57;;
4601;SDS011;2313;48.552;9.370;2023-10-09T08:12:38;22.30;;;4.10;;
4601;SDS011;2313;48.552;9.370;2023-10-09T08:15:23;18.97;;;4.97;;
4601;SDS011;2313;48.552;9.370;2023-10-09T08:17:59;15.27;;;4.20;;
4601;SDS011;2313;48.552;9.370;2023-10-09T08:20:43;26.40;;;4.50;;
4601;SDS011;2313;48.552;9.370;2023-10-09T08:23:21;20.30;;;4.00;;
4601;SDS011;2313;48.552;9.370;2023-10-09T08:26:13;17.87;;;4.00;;
4601;SDS011;2313;48.552;9.370;2023-10-09T08:28:43;20.93;;;3.90;;
4601;SDS011;2313;48.552;9.370;2023-10-09T08:31:14;22.97;;;4.83;;
4601;SDS011;2313;48.552;9.370;2023-10-09T08:33:45;15.10;;;3.90;;
4601;SDS011;2313;48.552;9.370;2023-10-09T08:36:21;18.73;;;4.03;;
4601;SDS011;2313;48.552;9.370;2023-10-09T08:38:48;18.90;;;4.33;;
4601;SDS011;2313;48.552;9.370;2023-10-09T08:41:13;22.43;;;4.80;;
4601;SDS011;2313;48.552;9.370;2023-10-09T08:43:51;27.67;;;4.27;;
4601;SDS011;2313;48.552;9.370;2023-10-09T08:46:22;22.20;;;3.60;;
4601;SDS011;2313;48.552;9.370;2023-10-09T08:48:51;25.33;;;4.17;;
4601;SDS011;2313;48.552;9.370;2023-10-09T08:51:19;21.27;;;4.47;;
4601;SDS011;2313;48.552;9.370;2023-10-09T08:53:45;19.30;;;4.43;;
4601;SDS011;2313;48.552;9.370;2023-10-09T08:56:12;20.23;;;4.47;;
4601;SDS011;2313;48.552;9.370;2023-10-09T08:58:44;35.87;;;4.27;;
4601;SDS011;2313;48.552;9.370;2023-10-09T09:01:10;27.57;;;4.53;;
4601;SDS011;2313;48.552;9.370;2023-10-09T09:03:42;12.13;;;3.60;;
4601;SDS011;2313;48.552;9.370;2023-10-09T09:06:08;23.47;;;4.30;;
4601;SDS011;2313;48.552;9.370;2023-10-09T09:08:35;16.53;;;4.57;;
4601;SDS011;2313;48.552;9.370;2023-10-09T09:11:11;19.03;;;4.00;;
4601;SDS011;2313;48.552;9.370;2023-10-09T09:16:35;31.63;;;5.20;;
4601;SDS011;2313;48.552;9.370;2023-10-09T09:19:09;23.27;;;4.33;;
4601;SDS011;2313;48.552;9.370;2023-10-09T09:21:38;15.90;;;3.93;;
4601;SDS011;2313;48.552;9.370;2023-10-09T09:24:06;17.63;;;3.40;;
4601;SDS011;2313;48.552;9.370;2023-10-09T09:26:48;20.63;;;4.33;;
4601;SDS011;2313;48.552;9.370;2023-10-09T09:29:46;25.43;;;4.53;;
4601;SDS011;2313;48.552;9.370;2023-10-09T09:32:30;17.07;;;3.40;;
4601;SDS011;2313;48.552;9.370;2023-10-09T09:35:03;17.97;;;3.70;;
4601;SDS011;2313;48.552;9.370;2023-10-09T09:37:31;14.50;;;3.63;;
4601;SDS011;2313;48.552;9.370;2023-10-09T09:40:18;23.70;;;4.33;;
4601;SDS011;2313;48.552;9.370;2023-10-09T09:42:57;18.33;;;4.23;;
4601;SDS011;2313;48.552;9.370;2023-10-09T09:45:39;23.40;;;3.93;;
4601;SDS011;2313;48.552;9.370;2023-10-09T09:48:11;18.07;;;4.40;;
4601;SDS011;2313;48.552;9.370;2023-10-09T09:50:41;19.03;;;3.93;;
4601;SDS011;2313;48.552;9.370;2023-10-09T09:53:13;18.43;;;4.10;;
4601;SDS011;2313;48.552;9.370;2023-10-09T09:55:49;18.97;;;4.50;;
4601;SDS011;2313;48.552;9.370;2023-10-09T09:58:22;22.73;;;5.57;;
4601;SDS011;2313;48.552;9.370;2023-10-09T10:00:52;16.10;;;4.33;;
4601;SDS011;2313;48.552;9.370;2023-10-09T10:03:20;24.73;;;5.00;;
4601;SDS011;2313;48.552;9.370;2023-10-09T10:05:47;19.53;;;4.90;;
4601;SDS011;2313;48.552;9.370;2023-10-09T10:08:16;30.27;;;5.33;;
4601;SDS011;2313;48.552;9.370;2023-10-09T10:10:45;23.70;;;4.30;;
4601;SDS011;2313;48.552;9.370;2023-10-09T10:16:11;40.67;;;5.07;;
4601;SDS011;2313;48.552;9.370;2023-10-09T10:21:47;25.73;;;5.20;;
4601;SDS011;2313;48.552;9.370;2023-10-09T10:27:22;32.57;;;5.77;;
4601;SDS011;2313;48.552;9.370;2023-10-09T10:35:17;18.63;;;4.30;;
4601;SDS011;2313;48.552;9.370;2023-10-09T10:37:45;39.00;;;7.13;;
4601;SDS011;2313;48.552;9.370;2023-10-09T10:40:31;34.30;;;6.40;;
4601;SDS011;2313;48.552;9.370;2023-10-09T10:43:21;33.23;;;6.50;;
4601;SDS011;2313;48.552;9.370;2023-10-09T10:46:03;28.73;;;5.37;;
4601;SDS011;2313;48.552;9.370;2023-10-09T10:48:51;24.43;;;6.83;;
4601;SDS011;2313;48.552;9.370;2023-10-09T10:51:28;33.57;;;6.97;;
4601;SDS011;2313;48.552;9.370;2023-10-09T10:54:02;25.20;;;5.67;;
4601;SDS011;2313;48.552;9.370;2023-10-09T10:56:55;36.53;;;7.33;;
4601;SDS011;2313;48.552;9.370;2023-10-09T10:59:23;28.77;;;6.43;;
4601;SDS011;2313;48.552;9.370;2023-10-09T11:01:50;35.23;;;5.97;;
4601;SDS011;2313;48.552;9.370;2023-10-09T11:04:45;38.63;;;6.03;;
4601;SDS011;2313;48.552;9.370;2023-10-09T11:07:20;29.00;;;6.07;;
4601;SDS011;2313;48.552;9.370;2023-10-09T11:09:56;47.17;;;6.30;;
4601;SDS011;2313;48.552;9.370;2023-10-09T11:15:11;30.97;;;6.50;;
4601;SDS011;2313;48.552;9.370;2023-10-09T11:17:59;34.57;;;6.50;;
4601;SDS011;2313;48.552;9.370;2023-10-09T11:20:30;35.63;;;6.37;;
4601;SDS011;2313;48.552;9.370;2023-10-09T11:22:58;26.83;;;6.10;;
4601;SDS011;2313;48.552;9.370;2023-10-09T11:25:36;29.93;;;6.20;;
4601;SDS011;2313;48.552;9.370;2023-10-09T11:28:22;23.17;;;5.20;;
4601;SDS011;2313;48.552;9.370;2023-10-09T11:31:10;25.40;;;6.80;;
4601;SDS011;2313;48.552;9.370;2023-10-09T11:33:50;30.60;;;6.10;;
4601;SDS011;2313;48.552;9.370;2023-10-09T11:36:17;27.00;;;5.43;;
4601;SDS011;2313;48.552;9.370;2023-10-09T11:38:56;32.33;;;6.23;;
4601;SDS011;2313;48.552;9.370;2023-10-09T11:41:41;27.57;;;7.07;;
4601;SDS011;2313;48.552;9.370;2023-10-09T11:44:07;31.37;;;5.90;;
4601;SDS011;2313;48.552;9.370;2023-10-09T11:46:56;37.30;;;6.93;;
4601;SDS011;2313;48.552;9.370;2023-10-09T11:49:50;36.60;;;6.23;;
4601;SDS011;2313;48.552;9.370;2023-10-09T11:52:25;29.93;;;7.47;;
4601;SDS011;2313;48.552;9.370;2023-10-09T11:55:01;46.93;;;7.00;;
4601;SDS011;2313;48.552;9.370;2023-10-09T11:57:28;34.33;;;5.77;;
4601;SDS011;2313;48.552;9.370;2023-10-09T11:59:56;30.60;;;7.40;;
4601;SDS011;2313;48.552;9.370;2023-10-09T12:02:23;43.57;;;7.67;;
4601;SDS011;2313;48.552;9.370;2023-10-09T12:04:49;33.00;;;6.67;;
4601;SDS011;2313;48.552;9.370;2023-10-09T12:07:14;31.90;;;6.00;;
4601;SDS011;2313;48.552;9.370;2023-10-09T12:09:41;23.60;;;6.13;;
4601;SDS011;2313;48.552;9.370;2023-10-09T12:12:08;35.93;;;6.13;;
4601;SDS011;2313;48.552;9.370;2023-10-09T12:14:34;36.77;;;6.83;;
4601;SDS011;2313;48.552;9.370;2023-10-09T12:17:02;34.77;;;6.10;;
4601;SDS011;2313;48.552;9.370;2023-10-09T12:19:35;30.57;;;5.90;;
4601;SDS011;2313;48.552;9.370;2023-10-09T12:22:07;23.57;;;6.13;;
4601;SDS011;2313;48.552;9.370;2023-10-09T12:24:41;51.43;;;6.70;;
4601;SDS011;2313;48.552;9.370;2023-10-09T12:27:09;33.07;;;7.03;;
4601;SDS011;2313;48.552;9.370;2023-10-09T12:29:37;31.70;;;6.00;;
4601;SDS011;2313;48.552;9.370;2023-10-09T12:32:09;18.50;;;5.80;;
4601;SDS011;2313;48.552;9.370;2023-10-09T12:34:36;35.60;;;5.93;;
4601;SDS011;2313;48.552;9.370;2023-10-09T12:37:03;26.90;;;6.47;;
4601;SDS011;2313;48.552;9.370;2023-10-09T12:39:29;38.50;;;5.77;;
4601;SDS011;2313;48.552;9.370;2023-10-09T12:42:05;26.13;;;6.30;;
4601;SDS011;2313;48.552;9.370;2023-10-09T12:44:34;25.47;;;5.10;;
4601;SDS011;2313;48.552;9.370;2023-10-09T12:47:04;23.30;;;5.40;;
4601;SDS011;2313;48.552;9.370;2023-10-09T12:49:31;21.23;;;6.10;;
4601;SDS011;2313;48.552;9.370;2023-10-09T12:51:57;26.13;;;5.53;;
4601;SDS011;2313;48.552;9.370;2023-10-09T12:54:24;42.50;;;7.47;;
4601;SDS011;2313;48.552;9.370;2023-10-09T12:56:52;29.70;;;5.67;;
4601;SDS011;2313;48.552;9.370;2023-10-09T12:59:18;29.63;;;6.93;;
4601;SDS011;2313;48.552;9.370;2023-10-09T13:01:45;30.60;;;6.13;;
4601;SDS011;2313;48.552;9.370;2023-10-09T13:04:15;22.67;;;5.03;;
4601;SDS011;2313;48.552;9.370;2023-10-09T13:06:44;26.17;;;5.77;;
4601;SDS011;2313;48.552;9.370;2023-10-09T13:09:14;38.70;;;6.60;;
4601;SDS011;2313;48.552;9.370;2023-10-09T13:11:41;30.93;;;6.90;;
4601;SDS011;2313;48.552;9.370;2023-10-09T13:14:13;32.17;;;6.00;;
4601;SDS011;2313;48.552;9.370;2023-10-09T13:16:48;25.50;;;6.10;;
4601;SDS011;2313;48.552;9.370;2023-10-09T13:19:17;33.47;;;5.90;;
4601;SDS011;2313;48.552;9.370;2023-10-09T13:21:43;26.90;;;5.97;;
4601;SDS011;2313;48.552;9.370;2023-10-09T13:24:09;23.33;;;5.73;;
4601;SDS011;2313;48.552;9.370;2023-10-09T13:26:40;37.17;;;6.60;;
4601;SDS011;2313;48.552;9.370;2023-10-09T13:29:11;29.90;;;6.50;;
4601;SDS011;2313;48.552;9.370;2023-10-09T13:31:38;34.13;;;5.97;;
4601;SDS011;2313;48.552;9.370;2023-10-09T13:34:05;27.03;;;6.03;;
4601;SDS011;2313;48.552;9.370;2023-10-09T13:36:31;21.67;;;5.10;;
4601;SDS011;2313;48.552;9.370;2023-10-09T13:39:08;23.07;;;5.70;;
4601;SDS011;2313;48.552;9.370;2023-10-09T13:41:50;34.10;;;5.90;;
4601;SDS011;2313;48.552;9.370;2023-10-09T13:44:30;27.83;;;5.30;;
4601;SDS011;2313;48.552;9.370;2023-10-09T13:46:59;32.93;;;5.70;;
4601;SDS011;2313;48.552;9.370;2023-10-09T13:49:26;30.33;;;6.67;;
4601;SDS011;2313;48.552;9.370;2023-10-09T13:51:55;34.43;;;5.80;;
4601;SDS011;2313;48.552;9.370;2023-10-09T13:54:22;27.20;;;6.37;;
4601;SDS011;2313;48.552;9.370;2023-10-09T13:56:57;35.33;;;6.80;;
4601;SDS011;2313;48.552;9.370;2023-10-09T13:59:23;27.37;;;5.83;;
4601;SDS011;2313;48.552;9.370;2023-10-09T14:01:52;26.07;;;5.93;;
4601;SDS011;2313;48.552;9.370;2023-10-09T14:04:25;22.83;;;5.73;;
4601;SDS011;2313;48.552;9.370;2023-10-09T14:06:53;22.77;;;5.10;;
4601;SDS011;2313;48.552;9.370;2023-10-09T14:09:22;24.77;;;5.77;;
4601;SDS011;2313;48.552;9.370;2023-10-09T14:12:03;23.63;;;6.00;;
4601;SDS011;2313;48.552;9.370;2023-10-09T14:17:12;31.20;;;5.30;;
4601;SDS011;2313;48.552;9.370;2023-10-09T14:22:12;18.10;;;5.53;;
4601;SDS011;2313;48.552;9.370;2023-10-09T14:24:42;21.73;;;5.63;;
4601;SDS011;2313;48.552;9.370;2023-10-09T14:27:11;21.33;;;5.53;;
4601;SDS011;2313;48.552;9.370;2023-10-09T14:29:43;33.43;;;7.63;;
4601;SDS011;2313;48.552;9.370;2023-10-09T14:32:13;24.00;;;5.50;;
4601;SDS011;2313;48.552;9.370;2023-10-09T14:34:39;22.50;;;4.97;;
4601;SDS011;2313;48.552;9.370;2023-10-09T14:37:11;20.63;;;5.90;;
4601;SDS011;2313;48.552;9.370;2023-10-09T14:39:40;33.00;;;6.07;;
4601;SDS011;2313;48.552;9.370;2023-10-09T14:42:06;26.80;;;5.60;;
4601;SDS011;2313;48.552;9.370;2023-10-09T14:44:35;19.33;;;5.60;;
4601;SDS011;2313;48.552;9.370;2023-10-09T14:47:05;30.20;;;6.57;;
4601;SDS011;2313;48.552;9.370;2023-10-09T14:49:31;28.20;;;6.13;;
4601;SDS011;2313;48.552;9.370;2023-10-09T14:52:02;25.37;;;6.63;;
4601;SDS011;2313;48.552;9.370;2023-10-09T14:54:28;25.63;;;6.60;;
4601;SDS011;2313;48.552;9.370;2023-10-09T14:56:54;27.17;;;5.87;;
4601;SDS011;2313;48.552;9.370;2023-10-09T14:59:19;17.37;;;5.33;;
4601;SDS011;2313;48.552;9.370;2023-10-09T15:01:47;19.23;;;5.40;;
4601;SDS011;2313;48.552;9.370;2023-10-09T15:04:15;18.47;;;6.20;;
4601;SDS011;2313;48.552;9.370;2023-10-09T15:06:40;20.80;;;5.17;;
4601;SDS011;2313;48.552;9.370;2023-10-09T15:09:06;18.93;;;5.83;;
4601;SDS011;2313;48.552;9.370;2023-10-09T15:11:46;22.50;;;5.13;;
4601;SDS011;2313;48.552;9.370;2023-10-09T15:14:13;20.80;;;6.70;;
4601;SDS011;2313;48.552;9.370;2023-10-09T15:16:39;17.07;;;5.80;;
4601;SDS011;2313;48.552;9.370;2023-10-09T15:19:04;26.30;;;6.83;;
4601;SDS011;2313;48.552;9.370;2023-10-09T15:21:30;18.37;;;4.90;;
4601;SDS011;2313;48.552;9.370;2023-10-09T15:23:58;28.73;;;6.00;;
4601;SDS011;2313;48.552;9.370;2023-10-09T15:26:24;19.27;;;5.57;;
4601;SDS011;2313;48.552;9.370;2023-10-09T15:28:53;25.30;;;6.40;;
4601;SDS011;2313;48.552;9.370;2023-10-09T15:31:19;22.40;;;6.40;;
4601;SDS011;2313;48.552;9.370;2023-10-09T15:33:46;34.33;;;7.10;;
4601;SDS011;2313;48.552;9.370;2023-10-09T15:36:15;37.50;;;6.30;;
4601;SDS011;2313;48.552;9.370;2023-10-09T15:38:50;38.07;;;5.97;;
4601;SDS011;2313;48.552;9.370;2023-10-09T15:41:16;25.60;;;5.90;;
4601;SDS011;2313;48.552;9.370;2023-10-09T15:43:43;24.10;;;6.17;;
4601;SDS011;2313;48.552;9.370;2023-10-09T15:46:10;23.80;;;5.60;;
4601;SDS011;2313;48.552;9.370;2023-10-09T15:48:39;25.67;;;5.33;;
4601;SDS011;2313;48.552;9.370;2023-10-09T15:51:09;23.57;;;5.23;;
4601;SDS011;2313;48.552;9.370;2023-10-09T15:53:41;21.80;;;4.93;;
4601;SDS011;2313;48.552;9.370;2023-10-09T15:56:10;31.93;;;6.37;;
4601;SDS011;2313;48.552;9.370;2023-10-09T15:58:40;25.60;;;5.10;;
4601;SDS011;2313;48.552;9.370;2023-10-09T16:01:14;28.30;;;5.07;;